createdAt,value
2022-12-20T00:01:01.779Z,-6.10
2022-12-20T00:02:03.600Z,-6.10
2022-12-20T00:03:05.411Z,-6.10
2022-12-20T00:04:07.065Z,-6.10
2022-12-20T00:05:08.767Z,-6.10
2022-12-20T00:06:11.152Z,-4.70
2022-12-20T00:07:12.816Z,-6.10
2022-12-20T00:08:14.733Z,-6.10
2022-12-20T00:09:16.741Z,-6.00
2022-12-20T00:10:18.409Z,-6.00
2022-12-20T00:11:20.118Z,-6.00
2022-12-20T00:12:21.738Z,-6.00
2022-12-20T00:13:23.480Z,-6.00
2022-12-20T00:14:25.131Z,-6.00
2022-12-20T00:15:28.281Z,-6.00
2022-12-20T00:16:30.147Z,-6.00
2022-12-20T00:17:31.949Z,-5.90
2022-12-20T00:18:34.212Z,-5.90
2022-12-20T00:19:35.934Z,-5.90
2022-12-20T00:20:37.611Z,-5.90
2022-12-20T00:21:39.321Z,-5.90
2022-12-20T00:22:40.977Z,-5.90
2022-12-20T00:23:42.756Z,-5.90
2022-12-20T00:24:44.701Z,-5.80
2022-12-20T00:25:46.399Z,-5.80
2022-12-20T00:26:48.011Z,-5.80
2022-12-20T00:27:50.009Z,-5.80
2022-12-20T00:28:51.701Z,-5.80
2022-12-20T00:29:53.490Z,-5.80
2022-12-20T00:30:55.513Z,-5.80
2022-12-20T00:31:57.488Z,-5.80
2022-12-20T00:32:59.178Z,-5.80
2022-12-20T00:34:01.387Z,-5.70
2022-12-20T00:35:03.196Z,-5.70
2022-12-20T00:36:06.001Z,-5.70
2022-12-20T00:37:07.683Z,-5.70
2022-12-20T00:38:09.718Z,-5.70
2022-12-20T00:39:11.564Z,-5.70
2022-12-20T00:40:13.360Z,-5.70
2022-12-20T00:41:22.563Z,-5.60
2022-12-20T00:42:24.522Z,-5.60
2022-12-20T00:43:26.302Z,-5.60
2022-12-20T00:44:28.611Z,-5.60
2022-12-20T00:45:30.402Z,-5.60
2022-12-20T00:46:32.463Z,-5.60
2022-12-20T00:47:34.199Z,-5.60
2022-12-20T00:48:36.400Z,-5.60
2022-12-20T00:49:38.184Z,-5.60
2022-12-20T00:50:40.026Z,-5.50
2022-12-20T00:51:41.816Z,-5.50
2022-12-20T00:52:43.477Z,-5.60
2022-12-20T00:53:45.424Z,-5.50
2022-12-20T00:54:47.244Z,-6.30
2022-12-20T00:55:49.358Z,-5.50
2022-12-20T00:56:50.968Z,-5.50
2022-12-20T00:57:52.622Z,-5.50
2022-12-20T00:58:54.531Z,-5.40
2022-12-20T00:59:56.290Z,-5.40
2022-12-20T01:00:58.201Z,-5.40
2022-12-20T01:02:01.544Z,-5.40
2022-12-20T01:03:03.423Z,-5.40
2022-12-20T01:04:05.281Z,-5.40
2022-12-20T01:05:07.112Z,-5.40
2022-12-20T01:06:09.958Z,-5.40
2022-12-20T01:07:11.811Z,-5.40
2022-12-20T01:08:13.431Z,-5.40
2022-12-20T01:09:15.288Z,-5.30
2022-12-20T01:10:18.195Z,-5.40
2022-12-20T01:11:21.775Z,-5.30
2022-12-20T01:12:23.417Z,-5.30
2022-12-20T01:13:25.136Z,-5.30
2022-12-20T01:14:26.842Z,-5.30
2022-12-20T01:15:28.989Z,-5.30
2022-12-20T01:16:30.652Z,-5.30
2022-12-20T01:17:32.639Z,-5.30
2022-12-20T01:18:34.309Z,-5.30
2022-12-20T01:19:35.918Z,-5.30
2022-12-20T01:20:37.571Z,-5.30
2022-12-20T01:21:44.311Z,-5.20
2022-12-20T01:22:47.816Z,-5.20
2022-12-20T01:23:49.848Z,-5.20
2022-12-20T01:24:51.516Z,-5.20
2022-12-20T01:25:53.198Z,-5.20
2022-12-20T01:26:55.020Z,-5.20
2022-12-20T01:27:56.654Z,-5.20
2022-12-20T01:28:59.533Z,-5.20
2022-12-20T01:30:01.291Z,-5.20
2022-12-20T01:31:05.940Z,-5.20
2022-12-20T01:32:07.775Z,-5.20
2022-12-20T01:33:09.487Z,-5.20
2022-12-20T01:34:11.635Z,-5.10
2022-12-20T01:35:13.301Z,-5.10
2022-12-20T01:36:16.722Z,-5.10
2022-12-20T01:37:18.326Z,-5.10
2022-12-20T01:38:20.085Z,-5.10
2022-12-20T01:39:21.728Z,-5.10
2022-12-20T01:40:23.344Z,-5.10
2022-12-20T01:41:25.561Z,-5.10
2022-12-20T01:42:27.170Z,-5.10
2022-12-20T01:43:47.744Z,-5.10
2022-12-20T01:44:53.018Z,-5.10
2022-12-20T01:45:54.658Z,-5.10
2022-12-20T01:46:56.519Z,-5.00
2022-12-20T01:47:59.694Z,-5.10
2022-12-20T01:49:01.335Z,-5.10
2022-12-20T01:50:04.623Z,-5.00
2022-12-20T01:51:06.667Z,-4.10
2022-12-20T01:52:11.607Z,-5.00
2022-12-20T01:53:13.583Z,-5.00
2022-12-20T01:54:20.316Z,-5.00
2022-12-20T01:55:24.698Z,-5.00
2022-12-20T01:56:27.203Z,-5.00
2022-12-20T01:57:35.053Z,-5.00
2022-12-20T01:58:38.221Z,-5.00
2022-12-20T01:59:41.532Z,-5.00
2022-12-20T02:00:43.561Z,-5.00
2022-12-20T02:01:45.957Z,-5.00
2022-12-20T02:02:49.197Z,-5.00
2022-12-20T02:03:52.247Z,-5.00
2022-12-20T02:04:54.006Z,-5.00
2022-12-20T02:05:56.769Z,-4.90
2022-12-20T02:06:58.780Z,-5.00
2022-12-20T02:08:00.715Z,-5.00
2022-12-20T02:09:03.712Z,-4.90
2022-12-20T02:10:06.069Z,-4.90
2022-12-20T02:11:07.737Z,-4.90
2022-12-20T02:12:09.713Z,-4.90
2022-12-20T02:13:14.301Z,-4.90
2022-12-20T02:14:32.093Z,-4.90
2022-12-20T02:15:45.941Z,-4.90
2022-12-20T02:17:07.921Z,-4.90
2022-12-20T02:18:15.823Z,-4.90
2022-12-20T02:19:27.852Z,-4.90
2022-12-20T02:20:29.575Z,-4.90
2022-12-20T02:21:37.159Z,-4.90
2022-12-20T02:22:57.405Z,-4.90
2022-12-20T02:24:17.993Z,-4.90
2022-12-20T02:25:25.269Z,-4.80
2022-12-20T02:26:30.123Z,-4.80
2022-12-20T02:27:48.937Z,-4.80
2022-12-20T02:29:09.587Z,-4.80
2022-12-20T02:30:15.700Z,-4.80
2022-12-20T02:32:37.181Z,-4.80
2022-12-20T02:33:39.944Z,-4.80
2022-12-20T02:34:42.186Z,-4.80
2022-12-20T02:35:43.876Z,-4.80
2022-12-20T02:36:45.492Z,-4.80
2022-12-20T02:37:48.368Z,-4.80
2022-12-20T02:38:50.620Z,-4.70
2022-12-20T02:39:52.521Z,-4.80
2022-12-20T02:40:57.516Z,-4.80
2022-12-20T02:42:19.888Z,-4.70
2022-12-20T02:43:40.984Z,-4.80
2022-12-20T02:45:10.507Z,-4.70
2022-12-20T02:46:13.010Z,-4.70
2022-12-20T02:47:18.594Z,-4.70
2022-12-20T02:48:20.981Z,-4.70
2022-12-20T02:49:26.488Z,-4.70
2022-12-20T02:50:29.720Z,-4.70
2022-12-20T02:51:32.739Z,-4.70
2022-12-20T02:52:34.570Z,-4.70
2022-12-20T02:53:37.424Z,-4.70
2022-12-20T02:54:39.115Z,-4.70
2022-12-20T02:55:43.844Z,-4.70
2022-12-20T02:56:47.495Z,-4.70
2022-12-20T02:57:57.831Z,-4.60
2022-12-20T02:59:04.647Z,-4.60
2022-12-20T03:00:11.374Z,-4.70
2022-12-20T03:01:17.610Z,-4.70
2022-12-20T03:02:19.748Z,-4.70
2022-12-20T03:03:24.443Z,-4.60
2022-12-20T03:04:32.328Z,-4.60
2022-12-20T03:05:35.273Z,-4.60
2022-12-20T03:06:37.119Z,-4.60
2022-12-20T03:07:39.128Z,-4.60
2022-12-20T03:08:40.922Z,-4.60
2022-12-20T03:09:43.679Z,-4.60
2022-12-20T03:10:45.440Z,-4.60
2022-12-20T03:11:47.082Z,-4.60
2022-12-20T03:12:48.906Z,-4.60
2022-12-20T03:13:51.137Z,-4.60
2022-12-20T03:14:52.871Z,-4.60
2022-12-20T03:15:54.496Z,-4.60
2022-12-20T03:16:56.191Z,-4.60
2022-12-20T03:17:58.011Z,-4.60
2022-12-20T03:18:59.764Z,-4.60
2022-12-20T03:20:01.958Z,-4.60
2022-12-20T03:21:03.587Z,-4.60
2022-12-20T03:22:05.444Z,-4.60
2022-12-20T03:23:07.303Z,-4.60
2022-12-20T03:24:11.252Z,-4.60
2022-12-20T03:25:13.904Z,-3.30
2022-12-20T03:26:15.673Z,-4.60
2022-12-20T03:27:17.281Z,-4.60
2022-12-20T03:28:19.155Z,-4.60
2022-12-20T03:29:20.868Z,-4.60
2022-12-20T03:30:22.952Z,-4.50
2022-12-20T03:31:24.599Z,-4.60
2022-12-20T03:32:26.350Z,-4.50
2022-12-20T03:33:28.135Z,-4.60
2022-12-20T03:34:30.176Z,-4.50
2022-12-20T03:35:31.899Z,-4.50
2022-12-20T03:36:34.005Z,-4.50
2022-12-20T03:37:35.865Z,-4.50
2022-12-20T03:38:39.063Z,-4.50
2022-12-20T03:39:40.778Z,-4.50
2022-12-20T03:40:42.434Z,-4.50
2022-12-20T03:41:44.083Z,-4.50
2022-12-20T03:42:45.740Z,-4.50
2022-12-20T03:43:48.241Z,-4.50
2022-12-20T03:44:50.403Z,-4.50
2022-12-20T03:45:52.429Z,-3.90
2022-12-20T03:46:54.148Z,-4.50
2022-12-20T03:47:55.811Z,-4.50
2022-12-20T03:48:57.602Z,-4.50
2022-12-20T03:49:59.604Z,-4.50
2022-12-20T03:51:01.353Z,-4.50
2022-12-20T03:52:03.362Z,-4.50
2022-12-20T03:53:05.101Z,-4.50
2022-12-20T03:54:07.478Z,-4.50
2022-12-20T03:55:09.884Z,-4.50
2022-12-20T03:56:11.695Z,-4.50
2022-12-20T03:57:13.825Z,-4.50
2022-12-20T03:58:15.467Z,-4.50
2022-12-20T03:59:17.248Z,-4.50
2022-12-20T04:00:19.071Z,-4.50
2022-12-20T04:01:25.460Z,-4.50
2022-12-20T04:02:27.404Z,-4.60
2022-12-20T04:03:29.281Z,-4.60
2022-12-20T04:04:31.271Z,-4.60
2022-12-20T04:05:32.935Z,-4.60
2022-12-20T04:06:34.571Z,-4.60
2022-12-20T04:07:36.751Z,-3.70
2022-12-20T04:08:38.540Z,-4.60
2022-12-20T04:09:40.395Z,-4.60
2022-12-20T04:11:00.716Z,-4.60
2022-12-20T04:12:02.362Z,-4.60
2022-12-20T04:13:04.004Z,-4.60
2022-12-20T04:14:06.129Z,-4.60
2022-12-20T04:15:08.164Z,-4.60
2022-12-20T04:16:10.124Z,-4.60
2022-12-20T04:17:11.834Z,-4.60
2022-12-20T04:18:13.569Z,-4.60
2022-12-20T04:19:15.447Z,-4.60
2022-12-20T04:20:20.515Z,-3.40
2022-12-20T04:21:29.052Z,-4.60
2022-12-20T04:22:30.681Z,-4.60
2022-12-20T04:23:32.529Z,-4.60
2022-12-20T04:24:34.162Z,-4.60
2022-12-20T04:25:35.919Z,-4.60
2022-12-20T04:26:37.709Z,-4.60
2022-12-20T04:27:39.363Z,-4.60
2022-12-20T04:28:41.333Z,-4.60
2022-12-20T04:29:43.225Z,-4.60
2022-12-20T04:30:45.111Z,-4.60
2022-12-20T04:31:46.987Z,-4.60
2022-12-20T04:32:48.631Z,-4.50
2022-12-20T04:33:50.648Z,-4.50
2022-12-20T04:34:52.366Z,-4.60
2022-12-20T04:35:54.597Z,-4.60
2022-12-20T04:36:56.654Z,-4.60
2022-12-20T04:37:58.293Z,-4.50
2022-12-20T04:39:00.099Z,-4.60
2022-12-20T04:40:01.900Z,-4.60
2022-12-20T04:41:03.713Z,-4.60
2022-12-20T04:42:05.397Z,-4.50
2022-12-20T04:43:07.184Z,-4.50
2022-12-20T04:44:08.827Z,-4.50
2022-12-20T04:45:10.821Z,-4.50
2022-12-20T04:46:12.660Z,-4.50
2022-12-20T04:47:14.274Z,-4.50
2022-12-20T04:48:54.488Z,-4.60
2022-12-20T04:49:38.187Z,-4.60
2022-12-20T04:50:40.213Z,-4.10
2022-12-20T04:51:41.934Z,-4.50
2022-12-20T04:53:02.260Z,-4.50
2022-12-20T04:54:03.916Z,-4.60
2022-12-20T04:55:05.814Z,-4.50
2022-12-20T04:56:08.232Z,-4.60
2022-12-20T04:57:09.907Z,-4.50
2022-12-20T04:58:11.593Z,-4.50
2022-12-20T04:59:13.195Z,-4.50
2022-12-20T05:00:15.944Z,-4.50
2022-12-20T05:01:18.234Z,-4.50
2022-12-20T05:02:19.987Z,-4.50
2022-12-20T05:03:23.037Z,-4.50
2022-12-20T05:04:24.842Z,-4.50
2022-12-20T05:05:26.561Z,-4.50
2022-12-20T05:06:28.250Z,-4.50
2022-12-20T05:07:30.080Z,-4.50
2022-12-20T05:08:31.921Z,-4.50
2022-12-20T05:09:33.692Z,-4.50
2022-12-20T05:10:35.765Z,-4.50
2022-12-20T05:11:37.421Z,-4.50
2022-12-20T05:12:39.273Z,-4.50
2022-12-20T05:13:41.423Z,-4.50
2022-12-20T05:14:43.096Z,-4.50
2022-12-20T05:15:44.998Z,-4.50
2022-12-20T05:16:47.013Z,-4.50
2022-12-20T05:17:48.687Z,-4.50
2022-12-20T05:18:50.434Z,-4.50
2022-12-20T05:19:52.096Z,-4.50
2022-12-20T05:21:18.698Z,-4.50
2022-12-20T05:22:39.274Z,-4.50
2022-12-20T05:23:59.887Z,-4.50
2022-12-20T05:25:20.365Z,-4.50
2022-12-20T05:26:23.332Z,-4.50
2022-12-20T05:27:27.481Z,-4.50
2022-12-20T05:28:29.601Z,-4.50
2022-12-20T05:29:31.440Z,-4.50
2022-12-20T05:30:33.219Z,-4.50
2022-12-20T05:31:35.105Z,-4.50
2022-12-20T05:32:37.987Z,-4.50
2022-12-20T05:33:39.584Z,-4.50
2022-12-20T05:34:41.616Z,-4.50
2022-12-20T05:35:43.244Z,-4.50
2022-12-20T05:36:45.067Z,-4.40
2022-12-20T05:37:46.878Z,-4.40
2022-12-20T05:38:48.554Z,-3.60
2022-12-20T05:39:50.480Z,-4.50
2022-12-20T05:40:52.263Z,-4.40
2022-12-20T05:41:54.040Z,-4.40
2022-12-20T05:42:55.773Z,-4.40
2022-12-20T05:43:57.590Z,-3.40
2022-12-20T05:45:00.716Z,-4.40
2022-12-20T05:46:02.509Z,-4.40
2022-12-20T05:47:04.566Z,-4.40
2022-12-20T05:48:06.448Z,-4.30
2022-12-20T05:49:08.248Z,-4.40
2022-12-20T05:50:18.226Z,-4.40
2022-12-20T05:51:20.657Z,-4.40
2022-12-20T05:52:22.472Z,-4.40
2022-12-20T05:53:24.301Z,-4.40
2022-12-20T05:54:26.105Z,-4.40
2022-12-20T05:55:27.951Z,-4.40
2022-12-20T05:56:29.774Z,-4.40
2022-12-20T05:57:31.645Z,-4.30
2022-12-20T05:59:12.124Z,-3.20
2022-12-20T06:00:16.660Z,-4.30
2022-12-20T06:01:37.215Z,-4.40
2022-12-20T06:02:40.350Z,-2.70
2022-12-20T06:03:42.365Z,-4.30
2022-12-20T06:04:44.234Z,-4.30
2022-12-20T06:05:46.424Z,-4.30
2022-12-20T06:06:48.302Z,-4.30
2022-12-20T06:07:50.633Z,-4.30
2022-12-20T06:08:52.487Z,-4.20
2022-12-20T06:09:54.294Z,-4.20
2022-12-20T06:10:56.632Z,-4.20
2022-12-20T06:11:58.707Z,-4.20
2022-12-20T06:13:00.721Z,-4.20
2022-12-20T06:14:02.480Z,-4.20
2022-12-20T06:15:04.495Z,-4.20
2022-12-20T06:16:07.217Z,-4.20
2022-12-20T06:17:09.331Z,-4.10
2022-12-20T06:18:11.383Z,-4.20
2022-12-20T06:19:20.879Z,-4.20
2022-12-20T06:20:23.140Z,-4.10
2022-12-20T06:21:27.647Z,-4.10
2022-12-20T06:22:29.460Z,-4.10
2022-12-20T06:23:31.937Z,-4.10
2022-12-20T06:24:33.680Z,-4.10
2022-12-20T06:25:35.477Z,-4.10
2022-12-20T06:26:37.525Z,-4.10
2022-12-20T06:27:39.371Z,-4.10
2022-12-20T06:28:42.961Z,-4.10
2022-12-20T06:29:52.002Z,-4.10
2022-12-20T06:30:54.441Z,-3.00
2022-12-20T06:31:56.322Z,-4.10
2022-12-20T06:32:58.147Z,-4.10
2022-12-20T06:34:00.121Z,-4.00
2022-12-20T06:35:01.775Z,-4.10
2022-12-20T06:36:04.259Z,-4.00
2022-12-20T06:37:05.905Z,-4.00
2022-12-20T06:38:07.700Z,-4.00
2022-12-20T06:39:10.076Z,-4.00
2022-12-20T06:40:13.643Z,-4.00
2022-12-20T06:41:15.474Z,-4.00
2022-12-20T06:42:17.269Z,-4.00
2022-12-20T06:43:19.061Z,-4.00
2022-12-20T06:44:20.765Z,-4.00
2022-12-20T06:45:22.458Z,-4.00
2022-12-20T06:46:24.142Z,-4.00
2022-12-20T06:47:26.132Z,-4.00
2022-12-20T06:48:27.783Z,-4.00
2022-12-20T06:49:30.003Z,-4.00
2022-12-20T06:50:32.164Z,-4.00
2022-12-20T06:51:33.981Z,-3.40
2022-12-20T06:52:35.677Z,-3.90
2022-12-20T06:53:38.865Z,-4.00
2022-12-20T06:54:40.520Z,-3.90
2022-12-20T06:55:42.371Z,-3.90
2022-12-20T06:56:44.595Z,-3.90
2022-12-20T06:57:46.685Z,-3.90
2022-12-20T06:58:48.416Z,-3.90
2022-12-20T06:59:50.146Z,-3.90
2022-12-20T07:00:51.875Z,-3.90
2022-12-20T07:01:53.783Z,-3.90
2022-12-20T07:02:55.644Z,-3.90
2022-12-20T07:03:57.574Z,-3.90
2022-12-20T07:04:59.225Z,-3.90
2022-12-20T07:06:00.856Z,-3.90
2022-12-20T07:07:02.516Z,-3.80
2022-12-20T07:08:04.877Z,-3.90
2022-12-20T07:09:06.682Z,-3.80
2022-12-20T07:10:09.082Z,-3.80
2022-12-20T07:11:10.917Z,-3.80
2022-12-20T07:12:13.027Z,-3.80
2022-12-20T07:13:14.927Z,-2.60
2022-12-20T07:14:16.771Z,-3.80
2022-12-20T07:15:18.746Z,-3.80
2022-12-20T07:16:20.848Z,-3.80
2022-12-20T07:17:22.845Z,-3.80
2022-12-20T07:18:24.689Z,-3.80
2022-12-20T07:19:27.882Z,-3.70
2022-12-20T07:20:29.762Z,-3.70
2022-12-20T07:21:31.431Z,-3.70
2022-12-20T07:22:34.534Z,-3.70
2022-12-20T07:23:36.570Z,-3.70
2022-12-20T07:24:39.928Z,-3.70
2022-12-20T07:25:41.536Z,-3.70
2022-12-20T07:26:45.906Z,-3.70
2022-12-20T07:27:49.787Z,-3.60
2022-12-20T07:28:51.510Z,-3.60
2022-12-20T07:29:53.294Z,-3.60
2022-12-20T07:30:55.231Z,-3.60
2022-12-20T07:31:56.969Z,-3.60
2022-12-20T07:32:59.127Z,-3.60
2022-12-20T07:34:00.784Z,-3.60
2022-12-20T07:35:02.596Z,-3.60
2022-12-20T07:36:05.498Z,-3.60
2022-12-20T07:37:08.958Z,-3.60
2022-12-20T07:38:10.612Z,-3.60
2022-12-20T07:39:12.277Z,-3.50
2022-12-20T07:40:14.845Z,-3.50
2022-12-20T07:41:18.066Z,-3.50
2022-12-20T07:42:20.161Z,-3.50
2022-12-20T07:43:22.164Z,-3.50
2022-12-20T07:44:23.944Z,-3.40
2022-12-20T07:45:25.661Z,-3.40
2022-12-20T07:46:27.751Z,-3.40
2022-12-20T07:47:30.330Z,-3.40
2022-12-20T07:48:32.572Z,-3.40
2022-12-20T07:49:34.242Z,-3.40
2022-12-20T07:50:36.493Z,-3.40
2022-12-20T07:51:40.552Z,-3.40
2022-12-20T07:52:44.513Z,-3.40
2022-12-20T07:53:48.568Z,-3.40
2022-12-20T07:55:00.395Z,-3.30
2022-12-20T07:56:02.557Z,-3.40
2022-12-20T07:57:07.239Z,-3.40
2022-12-20T07:58:10.242Z,-3.30
2022-12-20T07:59:12.887Z,-3.30
2022-12-20T08:00:15.221Z,-3.30
2022-12-20T08:01:17.150Z,-3.30
2022-12-20T08:02:22.419Z,-3.30
2022-12-20T08:03:27.219Z,-3.30
2022-12-20T08:04:30.906Z,-3.30
2022-12-20T08:05:33.518Z,-3.30
2022-12-20T08:06:37.114Z,-3.20
2022-12-20T08:07:39.907Z,-3.20
2022-12-20T08:08:43.328Z,-3.20
2022-12-20T08:09:45.528Z,-3.20
2022-12-20T08:10:47.279Z,-3.20
2022-12-20T08:11:49.617Z,-3.10
2022-12-20T08:12:51.429Z,-3.10
2022-12-20T08:13:57.742Z,-3.10
2022-12-20T08:15:00.042Z,-3.10
2022-12-20T08:16:01.827Z,-3.10
2022-12-20T08:17:03.607Z,-3.10
2022-12-20T08:18:06.430Z,-3.10
2022-12-20T08:19:08.063Z,-3.10
2022-12-20T08:20:09.888Z,-3.00
2022-12-20T08:21:13.420Z,-3.10
2022-12-20T08:22:15.091Z,-3.10
2022-12-20T08:23:16.735Z,-3.00
2022-12-20T08:24:18.359Z,-3.00
2022-12-20T08:25:21.658Z,-3.50
2022-12-20T08:26:23.281Z,-3.00
2022-12-20T08:27:25.122Z,-3.00
2022-12-20T08:28:26.830Z,-1.20
2022-12-20T08:29:28.573Z,-2.70
2022-12-20T08:30:30.551Z,-2.90
2022-12-20T08:31:32.408Z,-2.90
2022-12-20T08:32:34.853Z,-2.90
2022-12-20T08:33:38.281Z,-2.90
2022-12-20T08:34:39.964Z,-2.90
2022-12-20T08:35:41.622Z,-2.80
2022-12-20T08:36:43.693Z,-2.90
2022-12-20T08:37:45.508Z,-2.80
2022-12-20T08:38:47.119Z,-2.80
2022-12-20T08:39:48.981Z,-2.80
2022-12-20T08:40:50.693Z,-2.80
2022-12-20T08:41:52.326Z,-2.70
2022-12-20T08:42:54.038Z,-2.80
2022-12-20T08:43:56.068Z,-2.30
2022-12-20T08:44:57.684Z,-2.70
2022-12-20T08:45:59.616Z,-2.70
2022-12-20T08:47:01.293Z,-2.70
2022-12-20T08:48:03.255Z,-2.70
2022-12-20T08:49:05.649Z,-2.70
2022-12-20T08:50:07.537Z,-2.60
2022-12-20T08:51:10.668Z,-2.60
2022-12-20T08:52:12.344Z,-2.60
2022-12-20T08:53:14.035Z,-2.60
2022-12-20T08:54:16.113Z,-2.60
2022-12-20T08:55:20.915Z,-2.60
2022-12-20T08:56:25.127Z,-2.60
2022-12-20T08:57:26.896Z,-2.50
2022-12-20T08:58:28.721Z,-2.50
2022-12-20T08:59:30.807Z,-2.50
2022-12-20T09:00:32.580Z,-2.50
2022-12-20T09:01:34.504Z,-2.50
2022-12-20T09:02:38.295Z,-2.40
2022-12-20T09:03:40.673Z,-2.40
2022-12-20T09:04:42.371Z,-2.40
2022-12-20T09:05:45.780Z,-2.40
2022-12-20T09:06:47.931Z,-2.40
2022-12-20T09:07:49.593Z,-2.40
2022-12-20T09:08:51.349Z,-2.40
2022-12-20T09:09:53.009Z,-2.30
2022-12-20T09:11:02.794Z,-2.30
2022-12-20T09:12:04.558Z,-2.30
2022-12-20T09:13:06.190Z,-2.30
2022-12-20T09:14:09.078Z,-2.30
2022-12-20T09:15:10.953Z,-2.20
2022-12-20T09:16:14.629Z,-2.20
2022-12-20T09:17:16.575Z,-2.20
2022-12-20T09:18:18.474Z,-2.20
2022-12-20T09:19:20.348Z,-2.20
2022-12-20T09:20:22.004Z,-2.20
2022-12-20T09:21:23.963Z,-2.10
2022-12-20T09:22:25.741Z,-2.10
2022-12-20T09:23:27.958Z,-2.10
2022-12-20T09:24:29.620Z,-2.10
2022-12-20T09:25:31.449Z,-2.10
2022-12-20T09:26:35.373Z,-2.10
2022-12-20T09:27:38.081Z,-2.10
2022-12-20T09:28:39.872Z,-2.10
2022-12-20T09:29:41.511Z,-2.10
2022-12-20T09:30:43.182Z,-2.10
2022-12-20T09:31:44.879Z,-2.00
2022-12-20T09:32:46.645Z,-2.00
2022-12-20T09:33:48.434Z,-2.00
2022-12-20T09:34:50.374Z,-2.00
2022-12-20T09:35:52.084Z,-2.00
2022-12-20T09:36:55.316Z,-2.00
2022-12-20T09:37:58.183Z,-2.00
2022-12-20T09:38:59.943Z,-2.00
2022-12-20T09:40:01.810Z,-2.00
2022-12-20T09:41:04.772Z,-2.00
2022-12-20T09:42:09.391Z,-2.00
2022-12-20T09:43:11.639Z,-2.00
2022-12-20T09:44:21.779Z,-2.00
2022-12-20T09:45:27.185Z,-1.90
2022-12-20T09:46:29.976Z,-1.90
2022-12-20T09:47:34.711Z,-1.90
2022-12-20T09:48:38.388Z,-1.90
2022-12-20T09:49:41.389Z,-1.90
2022-12-20T09:50:58.550Z,-1.90
2022-12-20T09:52:09.077Z,-1.80
2022-12-20T09:53:29.594Z,-1.80
2022-12-20T09:54:31.347Z,-1.80
2022-12-20T09:55:43.837Z,-1.20
2022-12-20T09:56:57.000Z,-1.80
2022-12-20T09:57:59.205Z,-1.80
2022-12-20T09:59:00.916Z,-1.70
2022-12-20T10:00:02.867Z,-1.80
2022-12-20T10:01:25.687Z,-1.70
2022-12-20T10:02:58.716Z,-1.70
2022-12-20T10:03:51.858Z,-1.70
2022-12-20T10:04:54.140Z,-0.80
2022-12-20T10:05:57.807Z,-1.70
2022-12-20T10:07:05.698Z,-1.70
2022-12-20T10:08:11.345Z,-1.60
2022-12-20T10:09:22.107Z,-1.60
2022-12-20T10:10:46.556Z,-1.60
2022-12-20T10:11:51.185Z,-1.60
2022-12-20T10:13:11.421Z,-1.60
2022-12-20T10:14:22.317Z,-1.50
2022-12-20T10:15:45.637Z,-1.50
2022-12-20T10:16:50.324Z,-1.50
2022-12-20T10:17:56.098Z,-1.50
2022-12-20T10:19:04.053Z,-1.50
2022-12-20T10:20:24.899Z,-1.50
2022-12-20T10:21:38.952Z,-1.40
2022-12-20T10:22:40.785Z,-1.40
2022-12-20T10:23:45.207Z,-1.40
2022-12-20T10:25:15.952Z,-1.40
2022-12-20T10:26:17.957Z,-1.30
2022-12-20T10:27:21.497Z,-1.30
2022-12-20T10:28:28.785Z,-1.30
2022-12-20T10:29:30.588Z,-1.30
2022-12-20T10:30:33.786Z,-1.30
2022-12-20T10:31:36.371Z,-1.30
2022-12-20T10:32:38.137Z,-1.30
2022-12-20T10:33:40.512Z,-1.20
2022-12-20T10:34:48.641Z,-1.20
2022-12-20T10:35:51.129Z,-1.20
2022-12-20T10:37:12.095Z,-1.20
2022-12-20T10:38:17.515Z,-1.20
2022-12-20T10:39:39.074Z,-1.20
2022-12-20T10:41:20.767Z,-1.20
2022-12-20T10:42:25.982Z,-1.20
2022-12-20T10:43:28.477Z,-1.10
2022-12-20T10:44:30.607Z,-1.10
2022-12-20T10:45:36.009Z,-1.10
2022-12-20T10:46:39.602Z,-1.10
2022-12-20T10:47:43.103Z,-1.00
2022-12-20T10:48:45.820Z,-1.00
2022-12-20T10:49:47.576Z,-1.00
2022-12-20T10:50:56.815Z,-1.00
2022-12-20T10:52:03.406Z,-1.00
2022-12-20T10:53:10.898Z,-0.90
2022-12-20T10:54:41.820Z,-0.90
2022-12-20T10:55:43.441Z,-0.90
2022-12-20T10:56:54.443Z,-0.80
2022-12-20T10:57:56.156Z,-0.80
2022-12-20T10:58:57.847Z,-0.80
2022-12-20T11:00:01.606Z,-0.80
2022-12-20T11:01:12.607Z,-0.80
2022-12-20T11:02:24.934Z,-0.20
2022-12-20T11:03:29.392Z,-0.70
2022-12-20T11:04:33.393Z,-0.70
2022-12-20T11:05:35.289Z,-0.70
2022-12-20T11:06:37.070Z,-0.70
2022-12-20T11:08:24.305Z,-0.70
2022-12-20T11:09:30.327Z,-0.70
2022-12-20T11:10:32.083Z,-0.70
2022-12-20T11:11:33.755Z,-0.60
2022-12-20T11:12:35.403Z,-0.60
2022-12-20T11:13:37.286Z,-0.60
2022-12-20T11:14:40.162Z,-0.60
2022-12-20T11:15:51.988Z,-0.60
2022-12-20T11:16:54.771Z,-0.60
2022-12-20T11:18:11.564Z,-0.50
2022-12-20T11:19:32.095Z,-0.50
2022-12-20T11:20:47.132Z,-0.50
2022-12-20T11:21:48.808Z,-0.50
2022-12-20T11:23:09.230Z,-0.50
2022-12-20T11:24:13.834Z,-0.50
2022-12-20T11:25:31.693Z,-0.40
2022-12-20T11:26:48.813Z,-0.40
2022-12-20T11:27:59.702Z,-0.40
2022-12-20T11:29:07.580Z,-0.50
2022-12-20T11:30:14.449Z,-0.40
2022-12-20T11:31:20.369Z,-0.10
2022-12-20T11:32:29.855Z,-0.40
2022-12-20T11:33:50.933Z,-0.40
2022-12-20T11:34:58.851Z,-0.40
2022-12-20T11:36:03.448Z,-0.40
2022-12-20T11:37:21.951Z,-0.30
2022-12-20T11:38:30.946Z,-0.30
2022-12-20T11:39:56.795Z,-0.30
2022-12-20T11:41:17.273Z,-0.30
2022-12-20T11:42:37.011Z,-0.30
2022-12-20T11:44:15.833Z,-0.30
2022-12-20T11:45:13.786Z,-0.30
2022-12-20T11:46:25.365Z,-0.30
2022-12-20T11:47:33.349Z,-0.30
2022-12-20T11:48:51.857Z,-0.20
2022-12-20T11:50:12.708Z,-0.20
2022-12-20T11:51:25.886Z,-0.20
2022-12-20T11:52:34.446Z,-0.20
2022-12-20T11:53:41.021Z,-0.20
2022-12-20T11:54:45.861Z,-0.20
2022-12-20T11:55:49.416Z,-0.10
2022-12-20T11:56:53.193Z,-0.10
2022-12-20T11:59:51.323Z,-0.10
2022-12-20T12:00:52.949Z,-0.10
2022-12-20T12:02:05.224Z,-0.10
2022-12-20T12:03:43.248Z,-0.10
2022-12-20T12:04:51.045Z,0.00
2022-12-20T12:05:55.040Z,0.00
2022-12-20T12:06:59.660Z,0.00
2022-12-20T12:08:04.339Z,0.00
2022-12-20T12:09:06.031Z,0.00
2022-12-20T12:10:15.342Z,0.00
2022-12-20T12:11:56.182Z,0.00
2022-12-20T12:12:44.099Z,0.30
2022-12-20T12:13:45.752Z,0.00
2022-12-20T12:14:55.355Z,0.00
2022-12-20T12:16:15.818Z,0.10
2022-12-20T12:17:21.111Z,0.10
2022-12-20T12:18:29.127Z,0.10
2022-12-20T12:19:31.604Z,0.10
2022-12-20T12:20:36.829Z,0.10
2022-12-20T12:21:40.763Z,0.10
2022-12-20T12:22:42.881Z,0.10
2022-12-20T12:23:44.683Z,0.10
2022-12-20T12:24:48.996Z,0.10
2022-12-20T12:25:50.895Z,0.20
2022-12-20T12:26:52.907Z,0.20
2022-12-20T12:27:54.708Z,0.20
2022-12-20T12:28:59.071Z,0.20
2022-12-20T12:30:01.168Z,0.20
2022-12-20T12:31:08.375Z,0.20
2022-12-20T12:32:15.013Z,0.20
2022-12-20T12:33:24.153Z,0.20
2022-12-20T12:34:41.782Z,0.20
2022-12-20T12:35:43.726Z,0.20
2022-12-20T12:36:56.708Z,0.30
2022-12-20T12:38:28.903Z,0.30
2022-12-20T12:39:44.245Z,0.30
2022-12-20T12:41:04.785Z,0.30
2022-12-20T12:42:23.896Z,0.30
2022-12-20T12:43:46.143Z,0.30
2022-12-20T12:44:53.499Z,0.40
2022-12-20T12:46:01.727Z,0.40
2022-12-20T12:47:12.018Z,0.40
2022-12-20T12:48:26.739Z,0.40
2022-12-20T12:49:30.372Z,0.50
2022-12-20T12:50:37.567Z,0.50
2022-12-20T12:51:40.808Z,0.50
2022-12-20T12:52:46.136Z,0.80
2022-12-20T12:53:53.549Z,0.50
2022-12-20T12:54:55.220Z,0.50
2022-12-20T12:56:12.755Z,0.60
2022-12-20T12:57:18.801Z,0.60
2022-12-20T12:58:23.981Z,0.60
2022-12-20T12:59:34.744Z,0.60
2022-12-20T13:00:54.898Z,0.60
2022-12-20T13:02:04.014Z,0.70
2022-12-20T13:03:14.314Z,0.70
2022-12-20T13:04:23.579Z,0.70
2022-12-20T13:05:31.152Z,0.70
2022-12-20T13:06:53.210Z,0.70
2022-12-20T13:07:55.436Z,0.70
2022-12-20T13:08:57.077Z,0.70
2022-12-20T13:09:59.446Z,0.90
2022-12-20T13:11:01.997Z,0.80
2022-12-20T13:12:22.583Z,0.80
2022-12-20T13:13:24.509Z,0.80
2022-12-20T13:14:26.118Z,0.80
2022-12-20T13:15:28.779Z,0.80
2022-12-20T13:17:09.261Z,0.90
2022-12-20T13:18:00.247Z,0.80
2022-12-20T13:19:11.156Z,0.90
2022-12-20T13:20:18.389Z,0.90
2022-12-20T13:21:25.917Z,0.90
2022-12-20T13:22:27.872Z,0.90
2022-12-20T13:23:30.257Z,0.90
2022-12-20T13:24:42.455Z,1.00
2022-12-20T13:25:48.531Z,0.90
2022-12-20T13:26:53.044Z,1.00
2022-12-20T13:28:15.995Z,2.60
2022-12-20T13:29:28.004Z,0.90
2022-12-20T13:30:30.538Z,0.90
2022-12-20T13:31:33.279Z,1.00
2022-12-20T13:32:54.180Z,0.90
2022-12-20T13:34:00.124Z,1.00
2022-12-20T13:35:01.782Z,1.00
2022-12-20T13:36:05.152Z,2.70
2022-12-20T13:37:28.619Z,1.00
2022-12-20T13:38:30.484Z,3.60
2022-12-20T13:39:34.274Z,0.90
2022-12-20T13:40:43.673Z,0.90
2022-12-20T13:41:47.025Z,1.00
2022-12-20T13:42:52.310Z,1.00
2022-12-20T13:43:55.701Z,0.90
2022-12-20T13:44:57.614Z,1.00
2022-12-20T13:46:11.719Z,1.00
2022-12-20T13:47:25.715Z,1.00
2022-12-20T13:48:36.402Z,1.00
2022-12-20T13:49:39.784Z,1.00
2022-12-20T13:50:49.307Z,1.00
2022-12-20T13:52:06.676Z,1.00
2022-12-20T13:53:16.729Z,1.00
2022-12-20T13:54:26.677Z,1.00
2022-12-20T13:55:31.993Z,1.00
2022-12-20T13:56:37.327Z,1.00
2022-12-20T13:57:43.157Z,2.60
2022-12-20T13:58:45.930Z,1.10
2022-12-20T13:59:48.513Z,1.00
2022-12-20T14:00:50.861Z,3.10
2022-12-20T14:01:53.876Z,1.00
2022-12-20T14:02:55.945Z,1.10